Time;durP1;ratioP1;P1;durP2;ratioP2;P2;SDS_P1;SDS_P2;PMS_P1;PMS_P2;Temp;Humidity;BMP_temperature;BMP_pressure;BME280_temperature;BME280_humidity;BME280_pressure;Samples;Min_cycle;Max_cycle;Signal;HPM_P1;HPM_P2
2020/12/15 07:18:41;;;;;;;10.75;5.18;;;;;;;6.63;100.00;99673.22;6221781;22;20024;-75
2020/12/15 07:33:45;;;;;;;13.70;5.25;;;;;;;6.47;100.00;99684.38;6216290;22;20302;-84
2020/12/15 07:37:18;;;;;;;;;;;;;;;;;;;;;
2020/12/15 08:45:11;;;;;;;7.68;3.50;;;;;;;6.50;100.00;99776.78;6221517;22;20453;-78
2020/12/15 08:51:58;;;;;;;10.85;3.65;;;;;;;6.67;100.00;99777.22;6220832;23;20464;-78
2020/12/15 09:53:50;;;;;;;21.50;8.63;;;;;;;8.66;98.57;99845.44;6189711;23;20049;-71
2020/12/15 09:56:16;;;;;;;24.80;9.25;;;;;;;8.75;98.83;99851.13;6163126;23;20009;-72
2020/12/15 09:58:42;;;;;;;18.48;8.02;;;;;;;8.84;99.00;99847.41;6164607;23;20009;-72
2020/12/15 10:01:07;;;;;;;18.75;7.90;;;;;;;8.93;99.27;99853.94;6115066;23;20013;-72
2020/12/15 10:03:33;;;;;;;16.48;7.80;;;;;;;9.03;99.42;99855.75;6163700;23;20411;-71
2020/12/15 10:05:58;;;;;;;16.50;7.03;;;;;;;9.12;99.47;99853.94;6163687;23;20005;-71
2020/12/15 10:08:24;;;;;;;17.08;7.50;;;;;;;9.22;99.59;99861.28;6163953;23;20312;-71
2020/12/15 10:10:49;;;;;;;18.83;7.00;;;;;;;9.33;99.75;99859.13;6139073;23;20005;-71
2020/12/15 10:13:15;;;;;;;16.27;7.40;;;;;;;9.42;99.66;99860.13;6189751;23;20001;-72
2020/12/15 10:15:41;;;;;;;14.15;6.00;;;;;;;9.51;99.41;99855.53;6139095;23;20016;-72
2020/12/15 10:18:09;;;;;;;15.15;6.28;;;;;;;9.60;99.34;99862.00;6163782;23;20068;-71
2020/12/15 10:20:36;;;;;;;16.73;6.28;;;;;;;9.70;99.02;99858.25;6163455;23;20019;-72
2020/12/15 10:23:02;;;;;;;11.18;5.50;;;;;;;9.78;98.50;99857.56;6114709;23;20001;-72
2020/12/15 10:25:28;;;;;;;17.95;5.93;;;;;;;9.87;98.62;99857.69;6138296;23;20454;-72
2020/12/15 10:27:53;;;;;;;16.83;4.10;;;;;;;9.94;98.51;99858.09;6163639;23;20035;-72
2020/12/15 10:30:19;;;;;;;13.45;4.53;;;;;;;10.04;98.45;99857.91;6138447;23;20004;-72
2020/12/15 10:32:45;;;;;;;15.50;4.03;;;;;;;10.15;98.52;99868.81;6163784;23;20035;-72
2020/12/15 10:35:10;;;;;;;16.90;3.80;;;;;;;10.20;98.26;99864.00;6163528;23;20017;-72
2020/12/15 10:37:36;;;;;;;11.43;4.00;;;;;;;10.27;98.12;99860.84;6139231;23;20009;-72
2020/12/15 10:40:02;;;;;;;12.88;3.35;;;;;;;10.37;97.68;99868.97;6189606;23;20016;-73
2020/12/15 10:42:29;;;;;;;9.80;3.63;;;;;;;10.41;97.64;99863.59;6188122;23;20082;-73
2020/12/15 10:44:55;;;;;;;12.60;3.50;;;;;;;10.47;97.44;99866.00;6163355;23;20016;-73
2020/12/15 10:47:20;;;;;;;11.13;3.72;;;;;;;10.52;97.37;99865.84;6138760;23;20008;-73
2020/12/15 10:49:46;;;;;;;10.15;2.85;;;;;;;10.59;97.09;99861.88;6114879;23;20009;-73
2020/12/15 10:52:11;;;;;;;11.98;3.33;;;;;;;10.65;97.51;99860.63;6182906;23;20020;-73
2020/12/15 10:54:37;;;;;;;12.05;2.97;;;;;;;10.73;97.02;99863.50;6133510;23;20048;-73
2020/12/15 10:57:02;;;;;;;13.35;3.45;;;;;;;10.78;97.40;99865.34;6109656;23;20013;-73
2020/12/15 10:59:28;;;;;;;14.00;3.35;;;;;;;10.84;96.99;99861.31;6159011;23;20016;-73
2020/12/15 11:01:53;;;;;;;15.55;3.17;;;;;;;10.90;96.66;99868.41;6158752;23;20323;-72
2020/12/15 11:04:19;;;;;;;14.75;3.28;;;;;;;10.96;97.02;99867.13;6133655;23;20045;-72
2020/12/15 11:06:45;;;;;;;13.50;3.00;;;;;;;11.02;96.84;99867.84;6109449;23;20064;-72
2020/12/15 11:09:12;;;;;;;12.45;2.83;;;;;;;11.05;96.63;99869.19;6133640;23;20035;-72
2020/12/15 11:11:38;;;;;;;10.25;2.40;;;;;;;11.11;96.54;99862.38;6158301;23;20010;-72
2020/12/15 11:14:03;;;;;;;12.10;2.40;;;;;;;11.14;96.43;99870.91;6158168;23;20005;-72
2020/12/15 11:16:29;;;;;;;13.48;2.97;;;;;;;11.20;96.17;99877.19;6158705;23;20013;-72
2020/12/15 11:18:54;;;;;;;10.93;2.50;;;;;;;11.25;96.29;99871.47;6134083;23;20013;-72
2020/12/15 11:21:20;;;;;;;8.88;2.47;;;;;;;11.32;95.94;99871.88;6158120;23;20010;-73
2020/12/15 11:23:45;;;;;;;10.80;2.40;;;;;;;11.36;96.20;99881.22;6133367;23;20012;-72
2020/12/15 11:26:14;;;;;;;10.10;2.20;;;;;;;11.40;96.25;99876.69;6108846;23;20010;-72
2020/12/15 11:28:39;;;;;;;10.85;2.20;;;;;;;11.46;95.55;99873.78;6110059;23;20005;-72
2020/12/15 11:31:05;;;;;;;15.20;2.90;;;;;;;11.51;95.77;99877.25;6132746;23;20017;-72
2020/12/15 11:33:30;;;;;;;13.45;2.67;;;;;;;11.54;94.81;99871.06;6159595;23;20016;-72
2020/12/15 11:35:56;;;;;;;10.82;1.80;;;;;;;11.58;94.82;99876.81;6160828;23;20006;-72
2020/12/15 11:38:22;;;;;;;10.00;2.08;;;;;;;11.61;95.07;99887.28;6162056;23;20005;-72
2020/12/15 11:40:47;;;;;;;10.82;2.20;;;;;;;11.64;94.63;99869.97;6161113;23;20017;-72
2020/12/15 11:43:12;;;;;;;10.88;1.80;;;;;;;11.64;94.01;99883.88;6159499;23;20014;-72
2020/12/15 11:45:38;;;;;;;15.85;2.13;;;;;;;11.60;93.32;99889.25;6161798;23;20331;-75
2020/12/15 11:48:53;;;;;;;7.28;1.60;;;;;;;11.65;94.10;99891.09;6160302;23;20010;-75
2020/12/15 11:52:14;;;;;;;;;;;;;;;;;;;;;
2020/12/15 11:55:30;;;;;;;9.60;1.85;;;;;;;11.64;92.91;99892.22;6098031;23;20056;-75
2020/12/15 11:58:37;;;;;;;12.20;1.92;;;;;;;11.56;93.09;99888.25;6055165;23;20010;-75
2020/12/15 12:01:32;;;;;;;12.38;2.20;;;;;;;11.52;93.21;99887.25;6047458;23;20030;-75
2020/12/15 12:28:27;;;;;;;7.38;1.75;;;;;;;11.00;93.17;99905.41;5822304;24;20076;-77
2020/12/15 12:39:37;;;;;;;9.80;2.17;;;;;;;10.91;93.86;99903.38;5734665;24;20094;-78
2020/12/15 13:06:11;;;;;;;;;;;;;;;;;;;;;
2020/12/15 13:13:29;;;;;;;9.38;1.60;;;;;;;10.48;93.40;99895.38;5616652;25;20011;-76
2020/12/15 15:14:00;;;;;;;28.95;11.18;;;;;;;9.26;96.17;99903.88;6245246;22;20107;-70
2020/12/15 15:16:28;;;;;;;21.65;9.70;;;;;;;9.25;95.96;99902.22;6258292;22;20007;-75
2020/12/15 15:18:54;;;;;;;25.20;10.07;;;;;;;9.25;95.88;99907.78;6207172;23;20952;-74
2020/12/15 15:21:25;;;;;;;22.30;10.02;;;;;;;9.25;96.35;99912.47;6206718;23;20011;-76
2020/12/15 15:23:51;;;;;;;18.25;7.95;;;;;;;9.24;96.06;99900.56;6206948;23;20425;-76
2020/12/15 15:26:17;;;;;;;22.90;9.55;;;;;;;9.22;96.29;99916.69;6230890;23;20004;-76
2020/12/15 15:28:45;;;;;;;24.05;9.23;;;;;;;9.21;96.27;99908.66;6257306;23;20055;-76
2020/12/15 15:31:14;;;;;;;22.50;9.60;;;;;;;9.19;96.31;99920.03;6206990;23;20011;-76
2020/12/15 15:33:42;;;;;;;22.27;9.15;;;;;;;9.16;96.58;99915.94;6174648;23;20004;-76
2020/12/15 15:36:12;;;;;;;18.77;8.85;;;;;;;9.15;96.79;99922.59;6177310;23;20622;-76
2020/12/15 15:38:38;;;;;;;17.75;6.85;;;;;;;9.15;96.63;99927.31;6224727;23;20008;-76
2020/12/15 15:41:08;;;;;;;21.08;7.18;;;;;;;9.13;96.54;99926.78;6223864;23;20097;-77
2020/12/15 15:43:33;;;;;;;15.95;6.70;;;;;;;9.12;96.49;99925.97;6174730;23;20012;-75
2020/12/15 15:46:01;;;;;;;18.50;6.80;;;;;;;9.10;96.86;99930.97;6199816;23;20008;-75
2020/12/15 15:48:27;;;;;;;16.15;6.22;;;;;;;9.08;96.49;99930.47;6200823;23;20012;-75
2020/12/15 15:50:52;;;;;;;16.85;6.65;;;;;;;9.07;96.56;99928.78;6224922;23;20001;-75
2020/12/15 15:53:21;;;;;;;15.98;5.80;;;;;;;9.06;96.58;99932.69;6249942;23;20521;-72
2020/12/15 15:55:46;;;;;;;17.25;7.65;;;;;;;9.04;96.69;99934.13;6249486;23;20007;-74
2020/12/15 15:58:12;;;;;;;20.60;7.93;;;;;;;9.06;97.07;99929.94;6250942;22;20114;-74
2020/12/15 16:00:38;;;;;;;17.75;6.20;;;;;;;9.04;96.71;99925.81;6251759;22;20004;-74
2020/12/15 16:03:04;;;;;;;15.13;6.10;;;;;;;9.03;96.76;99929.72;6249848;23;20007;-74
2020/12/15 16:05:31;;;;;;;11.50;5.05;;;;;;;8.99;96.73;99937.75;6249841;23;20008;-74
2020/12/15 16:07:57;;;;;;;15.25;5.05;;;;;;;8.97;97.07;99920.66;6249733;23;20008;-74
2020/12/15 16:10:22;;;;;;;14.65;4.75;;;;;;;8.94;96.96;99923.97;6249359;23;20023;-76
2020/12/15 16:12:48;;;;;;;15.43;4.45;;;;;;;8.91;97.32;99930.97;6249352;22;20356;-75
2020/12/15 16:15:13;;;;;;;48.17;25.90;;;;;;;8.94;97.97;99930.38;6249528;23;20043;-75
2020/12/15 16:17:39;;;;;;;86.20;45.20;;;;;;;8.94;97.99;99926.75;6224406;23;20031;-77
2020/12/15 16:20:07;;;;;;;105.25;55.10;;;;;;;8.91;97.66;99925.44;6224623;23;20008;-77
2020/12/15 16:22:33;;;;;;;94.88;50.35;;;;;;;8.88;97.42;99927.94;6175319;23;20417;-77
2020/12/15 16:25:00;;;;;;;112.85;57.45;;;;;;;8.84;97.63;99924.13;6199021;23;20031;-78
2020/12/15 16:27:29;;;;;;;108.50;55.97;;;;;;;8.79;97.48;99925.00;6201148;23;20493;-77
2020/12/15 16:29:58;;;;;;;118.32;59.03;;;;;;;8.77;97.35;99934.75;6224630;23;20004;-77
2020/12/15 16:32:24;;;;;;;105.22;54.83;;;;;;;8.70;97.33;99933.16;6199091;23;20008;-77
2020/12/15 16:34:49;;;;;;;99.55;52.08;;;;;;;8.66;97.32;99932.13;6174360;23;20004;-77
2020/12/15 16:37:18;;;;;;;98.53;49.95;;;;;;;8.61;97.28;99932.16;6199117;23;20452;-77
2020/12/15 16:39:43;;;;;;;83.82;42.25;;;;;;;8.55;97.23;99938.84;6249668;23;20431;-74
2020/12/15 16:42:09;;;;;;;76.93;38.63;;;;;;;8.52;97.14;99938.63;6223676;23;20003;-75
2020/12/15 16:44:34;;;;;;;76.78;38.53;;;;;;;8.45;97.32;99931.50;6223584;23;20004;-74
2020/12/15 16:47:00;;;;;;;89.93;47.17;;;;;;;8.41;97.27;99937.91;6223816;23;20008;-74
2020/12/15 16:49:26;;;;;;;185.25;96.40;;;;;;;8.35;97.16;99939.88;6224463;23;20083;-74
2020/12/15 16:51:52;;;;;;;194.95;103.22;;;;;;;8.32;97.66;99947.97;6223950;23;20015;-74
2020/12/15 16:54:17;;;;;;;192.82;100.00;;;;;;;8.26;97.70;99936.94;6248633;23;20332;-74
2020/12/15 16:56:47;;;;;;;187.35;97.68;;;;;;;8.24;97.63;99943.88;6223508;23;20007;-74
2020/12/15 16:59:15;;;;;;;174.05;92.07;;;;;;;8.22;97.79;99946.94;6249550;23;20400;-74
2020/12/15 17:01:40;;;;;;;166.35;86.68;;;;;;;8.19;98.04;99946.69;6249622;23;20476;-74
2020/12/15 17:04:06;;;;;;;198.20;102.65;;;;;;;8.17;98.26;99947.00;6198701;23;20008;-74
2020/12/15 17:06:31;;;;;;;175.82;94.03;;;;;;;8.15;98.15;99949.22;6250751;22;20448;-72
2020/12/15 17:08:57;;;;;;;195.13;104.32;;;;;;;8.15;98.92;99954.75;6250807;22;20011;-74
2020/12/15 17:11:23;;;;;;;176.05;90.93;;;;;;;8.15;98.67;99943.69;6223426;23;20015;-74
2020/12/15 17:13:48;;;;;;;156.68;80.57;;;;;;;8.14;98.70;99950.34;6198827;23;20012;-74
2020/12/15 17:16:14;;;;;;;157.30;81.53;;;;;;;8.13;98.42;99947.88;6198964;23;20004;-74
2020/12/15 17:18:39;;;;;;;140.45;68.72;;;;;;;8.10;98.48;99952.03;6250774;22;20007;-74
2020/12/15 17:21:05;;;;;;;144.27;71.50;;;;;;;8.08;98.55;99957.06;6250745;22;20004;-74
2020/12/15 17:23:30;;;;;;;129.00;67.50;;;;;;;8.06;98.55;99953.75;6249008;23;20019;-74
2020/12/15 17:25:57;;;;;;;126.53;62.58;;;;;;;8.04;98.43;99953.22;6223240;23;20011;-74
2020/12/15 17:28:23;;;;;;;123.82;62.95;;;;;;;8.03;98.52;99957.09;6248164;23;20016;-74
2020/12/15 17:30:48;;;;;;;125.07;63.97;;;;;;;8.01;98.70;99951.84;6222989;23;20010;-74
2020/12/15 17:33:14;;;;;;;108.05;53.03;;;;;;;8.00;98.41;99943.84;6248530;23;20000;-74
2020/12/15 17:35:39;;;;;;;86.47;44.33;;;;;;;7.97;98.52;99947.19;6223531;23;20008;-74
2020/12/15 17:38:05;;;;;;;86.80;43.83;;;;;;;7.96;98.66;99956.59;6249055;23;20008;-74
2020/12/15 17:40:30;;;;;;;89.65;45.63;;;;;;;7.94;98.62;99951.38;6248774;23;20003;-74
2020/12/15 17:42:56;;;;;;;92.43;48.05;;;;;;;7.93;98.67;99959.94;6223078;23;20103;-74
2020/12/15 17:45:22;;;;;;;237.68;121.03;;;;;;;7.92;98.45;99958.31;6250147;22;20012;-74
2020/12/15 17:47:47;;;;;;;347.45;177.25;;;;;;;7.93;98.95;99954.41;6198930;23;20354;-74
2020/12/15 17:50:13;;;;;;;414.33;225.20;;;;;;;7.92;98.80;99953.59;6250392;22;20131;-75
2020/12/15 17:52:39;;;;;;;346.92;179.65;;;;;;;7.90;98.57;99961.34;6250110;22;20016;-75
2020/12/15 17:55:04;;;;;;;338.60;172.77;;;;;;;7.88;98.59;99963.56;6222871;23;20124;-75
2020/12/15 17:57:30;;;;;;;340.30;172.95;;;;;;;7.86;98.56;99967.75;6248399;23;20103;-75
2020/12/15 17:59:56;;;;;;;318.50;160.10;;;;;;;7.82;98.36;99959.19;6223777;23;20012;-75
2020/12/15 18:02:22;;;;;;;302.48;147.80;;;;;;;7.80;98.40;99961.41;6248694;23;20014;-75
2020/12/15 18:04:48;;;;;;;283.55;140.32;;;;;;;7.76;98.48;99958.41;6248665;23;20476;-75
2020/12/15 18:07:14;;;;;;;300.83;147.95;;;;;;;7.73;98.28;99961.75;6248728;23;20008;-75
2020/12/15 18:09:39;;;;;;;265.25;131.07;;;;;;;7.72;98.54;99956.53;6223592;23;20019;-75
2020/12/15 18:12:05;;;;;;;239.82;113.05;;;;;;;7.67;98.21;99951.88;6249527;22;20468;-73
2020/12/15 18:14:32;;;;;;;206.70;100.22;;;;;;;7.63;98.10;99961.81;6249858;22;20008;-74
2020/12/15 18:16:57;;;;;;;136.68;63.92;;;;;;;7.61;98.29;99958.56;6223456;23;20050;-72
2020/12/15 18:19:23;;;;;;;110.63;54.15;;;;;;;7.58;98.79;99959.13;6250263;22;20012;-72
2020/12/15 18:21:49;;;;;;;99.10;44.88;;;;;;;7.58;98.92;99959.13;6248469;23;20004;-72
2020/12/15 18:24:15;;;;;;;85.22;40.78;;;;;;;7.56;98.92;99955.81;6249546;22;20418;-73
2020/12/15 18:26:40;;;;;;;69.22;35.22;;;;;;;7.55;99.16;99965.19;6248536;23;20008;-73
2020/12/15 18:29:06;;;;;;;69.47;31.73;;;;;;;7.54;99.22;99963.56;6248607;23;20066;-72
2020/12/15 18:31:32;;;;;;;56.63;26.92;;;;;;;7.54;99.00;99963.56;6247921;23;20486;-73
2020/12/15 18:34:01;;;;;;;64.78;31.55;;;;;;;7.53;99.40;99961.94;6248690;23;20008;-73
2020/12/15 18:36:27;;;;;;;54.40;25.30;;;;;;;7.50;98.95;99960.56;6222807;23;20015;-73
2020/12/15 18:38:53;;;;;;;48.85;23.88;;;;;;;7.50;99.13;99970.78;6250306;22;20004;-72
2020/12/15 18:41:19;;;;;;;45.40;20.60;;;;;;;7.50;99.16;99963.31;6247560;23;20410;-72
2020/12/15 18:43:44;;;;;;;42.28;20.98;;;;;;;7.49;99.27;99971.88;6248578;23;20015;-72
2020/12/15 18:46:10;;;;;;;37.75;17.40;;;;;;;7.47;99.08;99968.59;6198088;23;20054;-72
2020/12/15 18:48:36;;;;;;;37.15;16.30;;;;;;;7.47;99.19;99965.84;6223632;23;20015;-72
2020/12/15 18:51:02;;;;;;;38.67;16.15;;;;;;;7.46;99.32;99961.41;6222948;23;20372;-72
2020/12/15 18:53:28;;;;;;;35.05;15.10;;;;;;;7.48;99.41;99973.00;6198137;23;20008;-72
2020/12/15 18:55:56;;;;;;;34.78;16.05;;;;;;;7.46;99.53;99962.22;6248029;23;20015;-72
2020/12/15 18:58:25;;;;;;;32.05;14.30;;;;;;;7.46;99.14;99969.69;6248985;23;20016;-72
2020/12/15 19:00:51;;;;;;;31.63;12.70;;;;;;;7.46;99.29;99962.22;6247977;23;20008;-73
2020/12/15 19:03:16;;;;;;;27.67;13.02;;;;;;;7.45;99.24;99966.13;6248011;23;20012;-72
2020/12/15 19:05:42;;;;;;;26.42;12.75;;;;;;;7.43;99.41;99962.81;6247834;22;20306;-73
2020/12/15 19:08:08;;;;;;;29.20;14.43;;;;;;;7.44;99.52;99967.25;6224595;23;20004;-73
2020/12/15 19:10:34;;;;;;;32.90;13.90;;;;;;;7.44;99.58;99972.75;6249605;23;20330;-73
2020/12/15 19:13:00;;;;;;;25.83;12.07;;;;;;;7.43;99.21;99962.81;6247343;22;20016;-72
2020/12/15 19:15:26;;;;;;;23.98;11.13;;;;;;;7.42;99.30;99963.09;6250720;23;20055;-73
2020/12/15 19:17:53;;;;;;;24.08;11.63;;;;;;;7.41;99.38;99967.81;6224975;23;20039;-73
2020/12/15 19:20:19;;;;;;;21.77;10.25;;;;;;;7.41;99.25;99969.72;6225332;23;20026;-72
2020/12/15 19:22:48;;;;;;;24.20;10.77;;;;;;;7.38;99.08;99974.72;6251977;22;20457;-73
2020/12/15 19:25:15;;;;;;;25.20;9.88;;;;;;;7.41;99.39;99966.97;6251477;22;20014;-73
2020/12/15 19:27:41;;;;;;;26.77;10.45;;;;;;;7.39;99.10;99979.13;6251450;22;20031;-73
2020/12/15 19:30:06;;;;;;;25.20;9.93;;;;;;;7.38;99.24;99968.34;6248987;23;20008;-73
2020/12/15 19:32:32;;;;;;;19.83;9.02;;;;;;;7.37;99.29;99975.00;6250336;23;20016;-73
2020/12/15 19:34:58;;;;;;;19.60;9.95;;;;;;;7.36;99.46;99982.47;6250196;23;20003;-73
2020/12/15 19:37:48;;;;;;;22.00;9.55;;;;;;;7.35;99.46;99983.59;6223806;23;20028;-77
2020/12/15 19:40:19;;;;;;;22.10;9.32;;;;;;;7.34;99.40;99981.94;6199000;23;20376;-77
2020/12/15 19:43:02;;;;;;;19.27;9.55;;;;;;;7.33;99.72;99985.81;6205161;23;20089;-77
2020/12/15 19:45:37;;;;;;;19.60;9.15;;;;;;;7.31;99.40;99982.50;6205437;23;20011;-75
2020/12/15 19:51:55;;;;;;;21.15;8.50;;;;;;;7.29;99.66;99987.47;6242749;22;20019;-71
2020/12/15 19:54:21;;;;;;;20.17;8.45;;;;;;;7.27;99.64;99986.97;6251057;22;20011;-71
2020/12/15 19:56:47;;;;;;;22.40;8.73;;;;;;;7.26;99.38;99990.81;6249874;23;20004;-72
2020/12/15 19:59:12;;;;;;;21.90;8.55;;;;;;;7.29;99.75;99989.41;6249904;23;20065;-72
2020/12/15 20:01:38;;;;;;;27.42;9.63;;;;;;;7.27;99.61;99988.88;6200010;23;20333;-72
2020/12/15 20:04:04;;;;;;;21.15;8.68;;;;;;;7.26;99.58;99988.03;6199500;23;20058;-72
2020/12/15 20:06:30;;;;;;;18.40;7.90;;;;;;;7.23;99.52;99988.63;6199856;23;20019;-72
2020/12/15 20:08:56;;;;;;;16.13;7.32;;;;;;;7.23;99.27;99988.63;6199673;23;20000;-72
2020/12/15 20:11:22;;;;;;;14.98;6.90;;;;;;;7.21;99.46;99988.06;6198276;23;20008;-73
2020/12/15 20:13:48;;;;;;;17.67;6.35;;;;;;;7.20;99.40;99978.16;6199478;23;20042;-73
2020/12/15 20:16:20;;;;;;;17.42;7.47;;;;;;;7.20;99.69;99989.19;6222922;23;20030;-74
2020/12/15 20:18:46;;;;;;;13.20;5.90;;;;;;;7.18;99.34;99985.88;6199312;23;20008;-74
2020/12/15 20:21:13;;;;;;;21.50;6.18;;;;;;;7.16;99.45;99977.06;6199314;23;20008;-73
2020/12/15 20:23:39;;;;;;;16.88;6.57;;;;;;;7.15;99.36;99990.03;6199777;23;20343;-73
2020/12/15 20:26:06;;;;;;;16.73;5.82;;;;;;;7.15;99.48;99978.16;6173804;23;20008;-74
2020/12/15 20:28:35;;;;;;;17.08;6.35;;;;;;;7.13;99.52;99975.72;6174857;23;20062;-73
2020/12/15 20:31:02;;;;;;;14.57;5.18;;;;;;;7.14;99.58;99971.00;6224324;23;20070;-73
2020/12/15 20:33:28;;;;;;;14.07;5.60;;;;;;;7.14;99.74;99979.28;6224187;23;20008;-72
2020/12/15 20:35:53;;;;;;;13.57;6.00;;;;;;;7.14;99.76;99979.28;6198912;23;20008;-72
2020/12/15 20:38:19;;;;;;;17.17;5.80;;;;;;;7.13;99.61;99977.63;6199403;23;20004;-72
2020/12/15 20:40:45;;;;;;;13.00;5.18;;;;;;;7.13;99.71;99974.84;6249114;23;20004;-72
2020/12/15 20:43:11;;;;;;;15.82;5.43;;;;;;;7.11;99.51;99974.34;6200143;23;20329;-72
2020/12/15 20:45:37;;;;;;;17.30;5.22;;;;;;;7.10;99.48;99978.19;6198542;23;20087;-73
2020/12/15 20:48:03;;;;;;;18.08;5.38;;;;;;;7.09;99.48;99971.84;6249335;23;20329;-72
2020/12/15 20:50:28;;;;;;;12.23;4.80;;;;;;;7.10;99.36;99970.75;6224390;23;20036;-73
2020/12/15 20:52:54;;;;;;;10.52;4.57;;;;;;;7.09;99.71;99974.59;6249590;23;20425;-73
2020/12/15 20:55:19;;;;;;;14.65;4.82;;;;;;;7.10;99.54;99967.13;6198580;23;20024;-73
2020/12/15 20:57:45;;;;;;;11.55;5.18;;;;;;;7.10;99.71;99967.13;6198530;23;20008;-72
2020/12/15 21:00:11;;;;;;;12.15;4.53;;;;;;;7.10;99.79;99970.75;6224157;23;20065;-73
2020/12/15 21:02:40;;;;;;;14.02;5.00;;;;;;;7.10;99.90;99956.09;6249604;23;20004;-72
2020/12/15 21:05:06;;;;;;;17.80;4.63;;;;;;;7.11;99.84;99952.25;6224650;23;20036;-72
2020/12/15 21:07:32;;;;;;;11.20;4.40;;;;;;;7.10;99.73;99954.19;6198551;23;20095;-73
2020/12/15 21:09:58;;;;;;;10.93;5.00;;;;;;;7.10;99.74;99953.34;6223884;23;20004;-73
2020/12/15 21:12:23;;;;;;;14.63;4.90;;;;;;;7.11;99.67;99958.59;6198529;23;20008;-73
2020/12/15 21:14:49;;;;;;;13.40;5.32;;;;;;;7.10;99.75;99956.09;6249016;22;20023;-73
2020/12/15 21:17:17;;;;;;;13.82;4.53;;;;;;;7.10;99.58;99964.38;6198437;23;20015;-73
2020/12/15 21:19:44;;;;;;;11.90;4.20;;;;;;;7.11;99.73;99963.28;6250811;22;20046;-73
2020/12/15 21:22:10;;;;;;;17.27;5.15;;;;;;;7.10;99.73;99959.72;6174009;23;20072;-73
2020/12/15 21:24:36;;;;;;;11.18;4.25;;;;;;;7.10;99.85;99958.84;6222738;23;20011;-73
2020/12/15 21:27:02;;;;;;;14.07;4.43;;;;;;;7.09;99.90;99952.50;6197954;23;20012;-72
2020/12/15 21:29:28;;;;;;;16.25;4.32;;;;;;;7.12;100.00;99949.19;6173569;23;20004;-74
2020/12/15 21:31:53;;;;;;;13.88;4.00;;;;;;;7.10;100.00;99948.66;6222959;23;20054;-74
2020/12/15 21:34:19;;;;;;;7.07;3.38;;;;;;;7.10;99.99;99937.63;6223599;23;20015;-72
2020/12/15 21:36:45;;;;;;;14.88;3.42;;;;;;;7.09;99.88;99940.66;6250185;22;20000;-73
2020/12/15 21:39:11;;;;;;;13.30;3.75;;;;;;;7.07;99.94;99932.63;6248627;23;20456;-74
2020/12/15 21:41:58;;;;;;;11.25;3.60;;;;;;;7.07;99.93;99927.13;6223853;23;20008;-77
2020/12/15 21:44:47;;;;;;;12.75;3.92;;;;;;;7.06;99.53;99924.66;6178500;23;20329;-77
2020/12/15 21:47:50;;;;;;;10.70;3.20;;;;;;;7.02;99.68;99916.13;6208944;23;20023;-77
2020/12/15 21:50:18;;;;;;;9.18;3.30;;;;;;;7.02;99.67;99923.56;6177719;23;20421;-77
2020/12/15 21:52:50;;;;;;;13.23;3.60;;;;;;;7.01;99.61;99919.16;6221430;23;20079;-77
2020/12/15 21:55:23;;;;;;;13.77;3.08;;;;;;;6.99;99.52;99913.09;6196502;23;20015;-77
2020/12/15 21:57:55;;;;;;;13.50;3.28;;;;;;;6.97;99.83;99916.16;6200068;23;20008;-77
2020/12/15 22:00:26;;;;;;;9.57;2.78;;;;;;;6.97;99.71;99907.88;6199356;23;20000;-77
2020/12/15 22:02:58;;;;;;;9.55;3.00;;;;;;;6.96;99.84;99906.19;6224173;23;20011;-77
2020/12/15 22:05:29;;;;;;;9.23;3.03;;;;;;;6.95;99.81;99901.81;6198356;23;20087;-77
2020/12/15 22:08:01;;;;;;;14.05;3.40;;;;;;;6.97;99.78;99915.34;6198805;23;20008;-76
2020/12/15 22:10:29;;;;;;;16.35;3.10;;;;;;;6.94;99.74;99906.50;6198976;23;20007;-76
2020/12/15 22:13:03;;;;;;;13.18;3.03;;;;;;;6.96;99.92;99899.84;6223077;22;20016;-77
2020/12/15 22:15:37;;;;;;;10.93;3.15;;;;;;;6.94;99.71;99900.97;6197913;23;20034;-77
2020/12/15 22:18:08;;;;;;;16.15;3.33;;;;;;;6.93;99.81;99904.84;6199416;23;20008;-77
2020/12/15 22:20:39;;;;;;;8.02;2.60;;;;;;;6.93;99.92;99898.50;6223072;23;20008;-76
2020/12/15 22:23:13;;;;;;;10.05;2.97;;;;;;;6.92;99.72;99903.19;6173810;23;20012;-77
2020/12/15 22:25:46;;;;;;;14.35;3.40;;;;;;;6.91;99.80;99907.06;6173306;23;20468;-77
2020/12/15 22:28:12;;;;;;;14.23;3.15;;;;;;;6.91;99.83;99904.31;6199668;23;20012;-74
2020/12/15 22:30:46;;;;;;;8.82;2.58;;;;;;;6.89;99.63;99906.53;6248852;22;20429;-77
2020/12/15 22:33:12;;;;;;;14.63;2.72;;;;;;;6.89;99.71;99906.53;6174828;23;20051;-77
2020/12/15 22:35:37;;;;;;;11.18;3.05;;;;;;;6.86;99.86;99909.84;6198389;23;20004;-77
2020/12/15 22:38:06;;;;;;;12.57;3.00;;;;;;;6.86;99.53;99909.84;6173755;23;20425;-77
2020/12/15 22:40:31;;;;;;;6.55;2.80;;;;;;;6.83;99.60;99910.44;6198698;23;20028;-77
2020/12/15 22:42:57;;;;;;;8.13;2.88;;;;;;;6.83;99.57;99906.84;6198660;23;20364;-77
2020/12/15 22:45:25;;;;;;;8.07;2.60;;;;;;;6.81;99.55;99907.13;6200056;23;20008;-77
2020/12/15 22:47:52;;;;;;;12.80;2.90;;;;;;;6.80;99.55;99904.63;6202030;23;20448;-77
2020/12/15 22:50:22;;;;;;;8.68;2.90;;;;;;;6.77;99.72;99902.44;6177324;23;20004;-77
2020/12/15 22:52:50;;;;;;;9.65;2.97;;;;;;;6.76;99.56;99898.03;6201810;23;20091;-77
2020/12/15 22:55:19;;;;;;;11.57;3.15;;;;;;;6.74;99.49;99894.72;6224873;23;20012;-77
2020/12/15 22:57:45;;;;;;;7.85;3.10;;;;;;;6.71;99.47;99885.06;6200894;23;20004;-77
2020/12/15 23:00:18;;;;;;;12.63;2.65;;;;;;;6.71;99.49;99885.06;6225349;23;20019;-76
2020/12/15 23:02:43;;;;;;;15.45;3.03;;;;;;;6.69;99.38;99881.78;6200721;23;20004;-77
2020/12/15 23:05:12;;;;;;;9.93;2.83;;;;;;;6.65;99.27;99887.03;6199980;23;20004;-76
2020/12/15 23:07:37;;;;;;;11.77;2.80;;;;;;;6.64;99.45;99879.88;6175609;23;20031;-76
2020/12/15 23:10:04;;;;;;;10.27;3.05;;;;;;;6.62;99.43;99886.78;6199911;23;20007;-77
2020/12/15 23:12:35;;;;;;;11.32;3.20;;;;;;;6.60;99.51;99872.44;6175127;23;20421;-77
2020/12/15 23:15:07;;;;;;;12.40;3.05;;;;;;;6.60;99.65;99883.47;6202463;23;20498;-76
2020/12/15 23:17:35;;;;;;;11.48;2.78;;;;;;;6.58;99.55;99875.50;6250392;23;20031;-76
2020/12/15 23:20:00;;;;;;;10.45;2.83;;;;;;;6.58;99.59;99880.19;6200800;23;20500;-76
2020/12/15 23:22:26;;;;;;;14.98;2.63;;;;;;;6.57;99.61;99882.09;6224740;23;20008;-76
2020/12/15 23:24:51;;;;;;;15.68;2.75;;;;;;;6.55;99.47;99878.00;6199270;23;20011;-76
2020/12/15 23:27:17;;;;;;;9.98;2.60;;;;;;;6.53;99.50;99872.75;6199933;23;20495;-77
2020/12/15 23:29:43;;;;;;;12.38;2.50;;;;;;;6.51;99.58;99872.22;6225168;23;20019;-76
2020/12/15 23:32:09;;;;;;;12.15;2.35;;;;;;;6.50;99.48;99873.31;6199060;23;20015;-77
2020/12/15 23:34:35;;;;;;;9.10;2.28;;;;;;;6.49;99.66;99891.81;6224799;23;20322;-77
2020/12/15 23:37:00;;;;;;;12.73;2.60;;;;;;;6.47;99.45;99884.94;6199666;23;20018;-77
2020/12/15 23:39:26;;;;;;;12.13;3.00;;;;;;;6.46;99.70;99897.06;6199989;23;20008;-76
2020/12/15 23:41:59;;;;;;;10.50;3.03;;;;;;;6.46;99.63;99888.78;6249469;23;20026;-76
2020/12/15 23:44:25;;;;;;;12.00;2.60;;;;;;;6.44;99.65;99897.34;6202209;23;20001;-77
2020/12/15 23:46:50;;;;;;;14.13;3.25;;;;;;;6.42;99.87;99893.22;6199601;23;20590;-77
2020/12/15 23:49:16;;;;;;;9.85;2.47;;;;;;;6.42;99.72;99896.81;6199973;23;20016;-77
2020/12/15 23:51:42;;;;;;;9.32;2.67;;;;;;;6.42;99.77;99902.31;6199544;23;20008;-76
2020/12/15 23:54:07;;;;;;;11.35;2.58;;;;;;;6.41;99.79;99892.41;6174140;23;20004;-76
2020/12/15 23:56:33;;;;;;;10.82;2.72;;;;;;;6.40;99.84;99885.22;6224668;23;20737;-77
2020/12/15 23:59:04;;;;;;;10.02;2.45;;;;;;;6.40;99.61;99885.22;6224901;23;20048;-77
